Time;durP1;ratioP1;P1;durP2;ratioP2;P2;SDS_P1;SDS_P2;PMS_P1;PMS_P2;Temp;Humidity;BMP_temperature;BMP_pressure;BME280_temperature;BME280_humidity;BME280_pressure;Samples;Min_cycle;Max_cycle;Signal;HPM_P1;HPM_P2
2023/12/07 00:01:51;;;;;;;20.53;14.60;;;;;;;;;;10449831;28;20196;-72
2023/12/07 00:06:52;;;;;;;23.10;15.63;;;;;;;;;;10452558;28;20209;-72
2023/12/07 00:11:52;;;;;;;21.17;14.43;;;;;;;;;;10450056;28;20212;-72
2023/12/07 00:16:52;;;;;;;20.63;14.73;;;;;;;;;;10447930;28;20224;-72
2023/12/07 00:21:52;;;;;;;22.47;16.00;;;;;;;;;;10449995;28;20188;-72
2023/12/07 00:26:52;;;;;;;18.83;14.53;;;;;;;;;;10451518;28;20223;-72
2023/12/07 00:31:53;;;;;;;17.63;13.07;;;;;;;;;;10448340;28;20713;-72
2023/12/07 00:36:53;;;;;;;20.83;14.90;;;;;;;;;;10451903;28;20212;-72
2023/12/07 00:41:53;;;;;;;20.80;14.03;;;;;;;;;;10450536;28;20869;-72
2023/12/07 00:46:54;;;;;;;20.77;15.07;;;;;;;;;;10450181;28;20188;-72
2023/12/07 00:51:54;;;;;;;18.97;13.97;;;;;;;;;;10448411;28;20281;-72
2023/12/07 00:56:54;;;;;;;17.93;13.60;;;;;;;;;;10448259;28;20476;-72
2023/12/07 01:01:54;;;;;;;17.93;13.40;;;;;;;;;;10451431;28;20456;-72
2023/12/07 01:06:55;;;;;;;18.60;13.80;;;;;;;;;;10445866;28;20666;-72
2023/12/07 01:11:55;;;;;;;19.60;14.50;;;;;;;;;;10448437;28;20202;-72
2023/12/07 01:16:55;;;;;;;20.43;14.60;;;;;;;;;;10454098;28;20739;-72
2023/12/07 01:21:56;;;;;;;23.77;16.47;;;;;;;;;;10451497;28;20687;-72
2023/12/07 01:26:57;;;;;;;22.77;16.13;;;;;;;;;;10447145;28;20203;-72
2023/12/07 01:31:57;;;;;;;20.95;14.90;;;;;;;;;;10448296;28;20201;-72
2023/12/07 01:36:57;;;;;;;20.13;14.17;;;;;;;;;;10447496;28;20207;-72
2023/12/07 01:41:57;;;;;;;21.40;15.00;;;;;;;;;;10452238;28;20230;-72
2023/12/07 01:46:58;;;;;;;20.83;14.67;;;;;;;;;;10454877;28;20187;-72
2023/12/07 01:51:58;;;;;;;22.85;15.40;;;;;;;;;;10455736;28;20445;-72
2023/12/07 01:56:58;;;;;;;20.37;14.03;;;;;;;;;;10454197;28;20227;-71
2023/12/07 02:01:58;;;;;;;21.73;14.60;;;;;;;;;;10456875;28;20557;-72
2023/12/07 02:06:59;;;;;;;24.20;15.77;;;;;;;;;;10452486;28;20944;-73
2023/12/07 02:12:00;;;;;;;23.33;17.00;;;;;;;;;;10412601;28;21008;-72
2023/12/07 02:17:17;;;;;;;26.67;17.33;;;;;;;;;;10413691;28;20218;-71
2023/12/07 02:22:21;;;;;;;27.27;18.53;;;;;;;;;;10410250;28;20223;-71
2023/12/07 02:27:32;;;;;;;28.40;18.83;;;;;;;;;;10411328;28;20332;-72
2023/12/07 02:32:33;;;;;;;28.00;18.10;;;;;;;;;;10412048;28;20196;-71
2023/12/07 02:37:37;;;;;;;28.13;17.73;;;;;;;;;;10414337;28;20581;-72
2023/12/07 02:42:39;;;;;;;25.80;17.60;;;;;;;;;;10413833;28;21029;-72
2023/12/07 02:47:40;;;;;;;28.43;17.60;;;;;;;;;;10407964;28;20650;-72
2023/12/07 02:52:40;;;;;;;27.23;18.00;;;;;;;;;;10410646;28;20189;-72
2023/12/07 02:57:40;;;;;;;26.83;18.17;;;;;;;;;;10413608;28;20270;-72
2023/12/07 03:02:41;;;;;;;26.67;17.17;;;;;;;;;;10410306;28;20220;-71
2023/12/07 03:07:41;;;;;;;21.57;15.47;;;;;;;;;;10409852;28;20280;-72
2023/12/07 03:12:41;;;;;;;22.23;14.13;;;;;;;;;;10410522;28;20193;-71
2023/12/07 03:17:43;;;;;;;22.97;15.43;;;;;;;;;;10412659;28;20209;-72
2023/12/07 03:22:44;;;;;;;20.93;14.60;;;;;;;;;;10409614;28;20638;-71
2023/12/07 03:27:44;;;;;;;22.83;14.57;;;;;;;;;;10409383;28;20220;-71
2023/12/07 03:32:44;;;;;;;23.53;14.87;;;;;;;;;;10409924;28;20184;-72
2023/12/07 03:37:45;;;;;;;23.30;14.47;;;;;;;;;;10410979;28;20537;-71
2023/12/07 03:42:45;;;;;;;19.47;14.10;;;;;;;;;;10408825;28;20188;-72
2023/12/07 03:47:45;;;;;;;23.60;15.50;;;;;;;;;;10404296;28;20217;-73
2023/12/07 03:52:45;;;;;;;20.30;14.33;;;;;;;;;;10411192;28;20247;-72
2023/12/07 03:57:46;;;;;;;21.50;14.07;;;;;;;;;;10408888;28;20645;-72
2023/12/07 04:02:46;;;;;;;22.43;13.73;;;;;;;;;;10409025;28;20795;-72
2023/12/07 04:07:46;;;;;;;22.03;14.30;;;;;;;;;;10407070;28;20196;-72
2023/12/07 04:12:46;;;;;;;21.57;13.73;;;;;;;;;;10410828;28;20258;-72
2023/12/07 04:17:47;;;;;;;20.53;13.03;;;;;;;;;;10407896;28;20216;-72
2023/12/07 04:22:47;;;;;;;21.48;14.02;;;;;;;;;;10406949;28;20442;-72
2023/12/07 04:27:47;;;;;;;20.05;14.18;;;;;;;;;;10407740;28;20557;-72
2023/12/07 04:32:47;;;;;;;21.63;13.80;;;;;;;;;;10409992;28;20200;-72
2023/12/07 04:37:48;;;;;;;19.27;13.87;;;;;;;;;;10407299;28;20212;-72
2023/12/07 04:42:48;;;;;;;25.45;15.27;;;;;;;;;;10406930;28;20197;-72
2023/12/07 04:47:48;;;;;;;20.37;12.83;;;;;;;;;;10406173;28;20184;-72
2023/12/07 04:52:48;;;;;;;25.07;15.73;;;;;;;;;;10406838;28;20439;-72
2023/12/07 04:57:49;;;;;;;19.73;14.27;;;;;;;;;;10404393;28;20613;-72
2023/12/07 05:02:49;;;;;;;26.60;15.77;;;;;;;;;;10404114;28;20196;-72
2023/12/07 05:07:49;;;;;;;22.73;16.75;;;;;;;;;;10404916;28;20467;-72
2023/12/07 05:12:50;;;;;;;26.47;16.00;;;;;;;;;;10405776;28;20654;-72
2023/12/07 05:17:52;;;;;;;23.90;15.80;;;;;;;;;;10407072;28;20809;-72
2023/12/07 05:22:53;;;;;;;26.67;16.97;;;;;;;;;;10411734;28;20279;-73
2023/12/07 05:27:53;;;;;;;24.20;16.20;;;;;;;;;;10414699;28;20570;-72
2023/12/07 05:32:53;;;;;;;27.27;16.07;;;;;;;;;;10408756;28;20722;-72
2023/12/07 05:37:54;;;;;;;25.55;17.42;;;;;;;;;;10411206;28;20323;-72
2023/12/07 05:42:54;;;;;;;23.80;16.27;;;;;;;;;;10411237;28;20660;-72
2023/12/07 05:47:54;;;;;;;25.60;16.47;;;;;;;;;;10414037;28;20192;-72
2023/12/07 05:52:55;;;;;;;27.80;17.70;;;;;;;;;;10410310;28;20726;-72
2023/12/07 05:57:55;;;;;;;26.13;17.40;;;;;;;;;;10410853;28;20346;-72
2023/12/07 06:02:55;;;;;;;26.67;16.50;;;;;;;;;;10409389;28;20202;-73
2023/12/07 06:07:56;;;;;;;27.80;16.37;;;;;;;;;;10413760;28;20184;-72
2023/12/07 06:12:58;;;;;;;25.17;15.52;;;;;;;;;;10395394;28;20205;-72
2023/12/07 06:17:58;;;;;;;22.07;14.93;;;;;;;;;;10390381;28;20224;-72
2023/12/07 06:22:59;;;;;;;22.70;15.57;;;;;;;;;;10388857;28;20565;-72
2023/12/07 06:27:59;;;;;;;19.97;14.50;;;;;;;;;;10391711;28;20223;-72
2023/12/07 06:32:59;;;;;;;23.53;15.33;;;;;;;;;;10396856;28;20203;-72
2023/12/07 06:37:59;;;;;;;19.83;13.70;;;;;;;;;;10408369;28;20247;-72
2023/12/07 06:43:00;;;;;;;23.40;14.17;;;;;;;;;;10407675;28;20189;-72
2023/12/07 06:48:01;;;;;;;19.65;14.00;;;;;;;;;;10408767;28;20666;-72
2023/12/07 06:53:02;;;;;;;22.83;13.67;;;;;;;;;;10408472;28;20268;-72
2023/12/07 06:58:02;;;;;;;18.60;12.77;;;;;;;;;;10408448;28;20218;-72
2023/12/07 07:03:02;;;;;;;24.50;14.97;;;;;;;;;;10410109;28;20195;-72
2023/12/07 07:08:03;;;;;;;21.03;13.53;;;;;;;;;;10407982;28;20215;-71
2023/12/07 07:13:04;;;;;;;19.47;13.27;;;;;;;;;;10407296;28;20231;-71
2023/12/07 07:18:05;;;;;;;19.10;12.80;;;;;;;;;;10406820;28;20299;-71
2023/12/07 07:23:07;;;;;;;19.00;13.30;;;;;;;;;;10400301;28;20200;-71
2023/12/07 07:28:08;;;;;;;25.20;15.13;;;;;;;;;;10403394;28;20216;-72
2023/12/07 07:33:08;;;;;;;21.63;15.67;;;;;;;;;;10398541;28;20200;-71
2023/12/07 07:38:09;;;;;;;25.30;14.33;;;;;;;;;;10395121;28;20235;-72
2023/12/07 07:43:09;;;;;;;25.93;13.90;;;;;;;;;;10406755;28;20197;-72
2023/12/07 07:48:10;;;;;;;22.33;14.20;;;;;;;;;;10406274;28;20199;-71
2023/12/07 07:53:10;;;;;;;24.87;14.40;;;;;;;;;;10400692;28;20264;-72
2023/12/07 07:58:10;;;;;;;23.33;15.33;;;;;;;;;;10406926;28;20680;-72
2023/12/07 08:03:10;;;;;;;24.53;16.20;;;;;;;;;;10406892;28;21072;-72
2023/12/07 08:08:11;;;;;;;26.33;14.03;;;;;;;;;;10394823;28;20758;-72
2023/12/07 08:13:11;;;;;;;22.47;14.77;;;;;;;;;;10403579;28;20199;-72
2023/12/07 08:18:11;;;;;;;22.87;14.97;;;;;;;;;;10420201;28;20216;-72
2023/12/07 08:23:12;;;;;;;23.93;15.93;;;;;;;;;;10419255;28;20186;-72
2023/12/07 08:28:12;;;;;;;24.63;16.07;;;;;;;;;;10423643;28;20458;-72
2023/12/07 08:33:12;;;;;;;23.43;14.77;;;;;;;;;;10426252;28;20447;-72
2023/12/07 08:38:12;;;;;;;21.13;13.97;;;;;;;;;;10415819;28;20475;-72
2023/12/07 08:43:13;;;;;;;24.48;14.15;;;;;;;;;;10405381;28;20189;-72
2023/12/07 08:48:13;;;;;;;21.23;14.37;;;;;;;;;;10392061;28;20193;-72
2023/12/07 08:53:13;;;;;;;21.90;14.23;;;;;;;;;;10404226;28;20196;-72
2023/12/07 08:58:13;;;;;;;22.00;14.77;;;;;;;;;;10407848;28;20219;-72
2023/12/07 09:03:14;;;;;;;21.37;14.63;;;;;;;;;;10431788;28;20593;-72
2023/12/07 09:08:17;;;;;;;21.67;15.47;;;;;;;;;;10414344;28;20554;-72
2023/12/07 09:13:18;;;;;;;26.60;15.53;;;;;;;;;;10418435;28;20192;-72
2023/12/07 09:18:18;;;;;;;25.23;15.67;;;;;;;;;;10419252;28;20481;-72
2023/12/07 09:23:19;;;;;;;24.40;16.27;;;;;;;;;;10428796;28;20191;-72
2023/12/07 09:28:19;;;;;;;26.33;16.52;;;;;;;;;;10419308;28;20249;-71
2023/12/07 09:33:19;;;;;;;24.70;16.53;;;;;;;;;;10419204;28;20226;-71
2023/12/07 09:38:19;;;;;;;25.97;15.97;;;;;;;;;;10424654;28;20228;-72
2023/12/07 09:43:20;;;;;;;28.23;17.80;;;;;;;;;;10423598;28;20181;-71
2023/12/07 09:48:21;;;;;;;26.77;17.53;;;;;;;;;;10422560;28;20196;-71
2023/12/07 09:53:21;;;;;;;32.70;21.97;;;;;;;;;;10414789;28;20233;-71
2023/12/07 09:58:22;;;;;;;27.20;18.00;;;;;;;;;;10420560;28;20330;-72
2023/12/07 10:03:22;;;;;;;24.23;15.93;;;;;;;;;;10404147;28;20361;-73
2023/12/07 10:08:29;;;;;;;23.63;15.20;;;;;;;;;;10423983;28;20280;-72
2023/12/07 10:13:30;;;;;;;24.70;15.57;;;;;;;;;;10422874;28;20858;-72
2023/12/07 10:18:30;;;;;;;26.87;17.93;;;;;;;;;;10418963;28;20307;-72
2023/12/07 10:23:31;;;;;;;25.27;16.40;;;;;;;;;;10431157;28;20334;-72
2023/12/07 10:28:33;;;;;;;27.93;17.20;;;;;;;;;;10420252;28;20204;-72
2023/12/07 10:33:33;;;;;;;24.70;15.47;;;;;;;;;;10434295;28;20897;-72
2023/12/07 10:38:34;;;;;;;23.23;14.67;;;;;;;;;;10423269;28;20235;-72
2023/12/07 10:43:36;;;;;;;20.67;14.83;;;;;;;;;;10430252;28;20195;-72
2023/12/07 10:48:37;;;;;;;25.20;15.67;;;;;;;;;;10427667;28;20436;-73
2023/12/07 10:53:40;;;;;;;22.13;15.43;;;;;;;;;;10431371;28;20725;-71
2023/12/07 10:58:41;;;;;;;24.33;15.77;;;;;;;;;;10425663;28;20211;-74
2023/12/07 11:03:43;;;;;;;25.10;15.87;;;;;;;;;;10419586;28;20665;-72
2023/12/07 11:08:46;;;;;;;30.03;16.87;;;;;;;;;;10425344;28;20220;-73
2023/12/07 11:13:53;;;;;;;27.00;16.33;;;;;;;;;;10422468;28;20226;-72
2023/12/07 11:18:53;;;;;;;25.67;15.70;;;;;;;;;;10423801;28;20626;-72
2023/12/07 11:23:59;;;;;;;26.80;15.53;;;;;;;;;;10412508;28;20185;-71
2023/12/07 11:29:00;;;;;;;19.83;12.10;;;;;;;;;;10434655;28;20244;-72
2023/12/07 11:34:05;;;;;;;26.90;15.77;;;;;;;;;;10428005;28;21547;-72
2023/12/07 11:39:09;;;;;;;27.73;16.60;;;;;;;;;;10421739;28;20235;-71
2023/12/07 11:44:09;;;;;;;24.43;15.80;;;;;;;;;;10428693;28;20231;-72
2023/12/07 11:49:11;;;;;;;24.67;16.43;;;;;;;;;;10418117;28;20606;-73
2023/12/07 11:54:11;;;;;;;22.30;15.77;;;;;;;;;;10408061;28;20203;-72
2023/12/07 11:59:12;;;;;;;24.38;16.13;;;;;;;;;;10417149;28;20224;-73
2023/12/07 12:04:12;;;;;;;24.40;16.07;;;;;;;;;;10408044;28;20295;-73
2023/12/07 12:09:13;;;;;;;23.27;15.10;;;;;;;;;;10396315;28;20191;-73
2023/12/07 12:14:14;;;;;;;24.27;16.10;;;;;;;;;;10419042;28;20447;-73
2023/12/07 12:19:14;;;;;;;21.63;14.17;;;;;;;;;;10404806;28;20588;-72
2023/12/07 12:24:14;;;;;;;24.00;15.03;;;;;;;;;;10420659;28;20196;-72
2023/12/07 12:29:15;;;;;;;23.33;16.07;;;;;;;;;;10404551;28;20216;-72
2023/12/07 12:34:17;;;;;;;23.77;16.57;;;;;;;;;;10422843;28;20563;-73
2023/12/07 12:39:17;;;;;;;31.43;20.60;;;;;;;;;;10429843;28;20226;-73
2023/12/07 12:44:18;;;;;;;31.80;20.73;;;;;;;;;;10425678;28;20191;-73
2023/12/07 12:49:19;;;;;;;30.37;18.83;;;;;;;;;;10417162;28;20563;-73
2023/12/07 12:54:20;;;;;;;28.00;18.40;;;;;;;;;;10416372;28;20202;-73
2023/12/07 12:59:22;;;;;;;25.63;17.93;;;;;;;;;;10422662;28;20838;-73
2023/12/07 13:04:22;;;;;;;22.73;15.73;;;;;;;;;;10422278;28;20198;-73
2023/12/07 13:09:22;;;;;;;24.57;16.87;;;;;;;;;;10416351;28;20681;-73
2023/12/07 13:14:23;;;;;;;29.40;18.63;;;;;;;;;;10415255;28;20200;-72
2023/12/07 13:19:23;;;;;;;31.17;20.87;;;;;;;;;;10428543;28;20204;-73
2023/12/07 13:24:23;;;;;;;23.77;15.80;;;;;;;;;;10422369;28;20199;-73
2023/12/07 13:29:23;;;;;;;25.40;15.77;;;;;;;;;;10424645;28;20819;-73
2023/12/07 13:34:25;;;;;;;27.73;18.33;;;;;;;;;;10423576;28;20215;-73
2023/12/07 13:39:30;;;;;;;28.57;18.83;;;;;;;;;;10403628;28;20585;-73
2023/12/07 13:44:32;;;;;;;33.10;22.37;;;;;;;;;;10405390;28;20196;-72
2023/12/07 13:49:32;;;;;;;30.77;18.93;;;;;;;;;;10416416;28;20203;-73
2023/12/07 13:54:33;;;;;;;31.43;18.83;;;;;;;;;;10417499;28;20208;-72
2023/12/07 13:59:33;;;;;;;25.93;16.37;;;;;;;;;;10442463;28;20854;-72
2023/12/07 14:04:34;;;;;;;28.63;19.58;;;;;;;;;;10425378;28;20835;-72
2023/12/07 14:09:34;;;;;;;25.17;16.67;;;;;;;;;;10419825;28;20262;-72
2023/12/07 14:14:34;;;;;;;25.93;17.00;;;;;;;;;;10408695;28;20202;-72
2023/12/07 14:19:35;;;;;;;23.00;16.13;;;;;;;;;;10422129;28;20211;-72
2023/12/07 14:24:36;;;;;;;26.37;17.00;;;;;;;;;;10426493;28;20188;-73
2023/12/07 14:29:37;;;;;;;24.47;16.27;;;;;;;;;;10426011;28;20662;-72
2023/12/07 14:34:37;;;;;;;22.93;14.70;;;;;;;;;;10423060;28;20206;-72
2023/12/07 14:39:39;;;;;;;27.20;19.60;;;;;;;;;;10431037;28;20235;-72
2023/12/07 14:44:39;;;;;;;25.20;18.20;;;;;;;;;;10423241;28;20716;-72
2023/12/07 14:49:40;;;;;;;26.83;17.23;;;;;;;;;;10421723;28;20195;-72
2023/12/07 14:54:41;;;;;;;28.20;17.07;;;;;;;;;;10422666;28;20492;-72
2023/12/07 15:00:13;;;;;;;30.07;18.93;;;;;;;;;;10430026;28;20258;-72
2023/12/07 15:05:14;;;;;;;28.87;18.27;;;;;;;;;;10406838;28;20201;-73
2023/12/07 15:10:14;;;;;;;34.88;20.52;;;;;;;;;;10415850;28;20192;-73
2023/12/07 15:15:14;;;;;;;31.65;20.15;;;;;;;;;;10422038;28;20188;-73
2023/12/07 15:20:15;;;;;;;33.43;20.30;;;;;;;;;;10419154;28;20577;-72
2023/12/07 15:25:15;;;;;;;32.57;19.17;;;;;;;;;;10425635;28;20294;-72
2023/12/07 15:30:15;;;;;;;32.83;20.53;;;;;;;;;;10425097;28;20196;-72
2023/12/07 15:35:16;;;;;;;30.83;20.00;;;;;;;;;;10408263;28;20489;-72
2023/12/07 15:40:16;;;;;;;34.80;20.20;;;;;;;;;;10428831;28;20227;-73
2023/12/07 15:45:16;;;;;;;31.07;19.67;;;;;;;;;;10421833;28;20204;-73
2023/12/07 15:50:17;;;;;;;38.17;24.47;;;;;;;;;;10417653;28;20427;-73
2023/12/07 15:55:17;;;;;;;31.63;20.00;;;;;;;;;;10403937;28;20192;-73
2023/12/07 16:00:17;;;;;;;35.50;22.63;;;;;;;;;;10393856;28;20182;-73
2023/12/07 16:05:18;;;;;;;39.53;23.67;;;;;;;;;;10395713;28;20188;-73
2023/12/07 16:10:19;;;;;;;38.50;23.87;;;;;;;;;;10390281;28;20224;-73
2023/12/07 16:15:20;;;;;;;27.37;18.70;;;;;;;;;;10394843;28;20195;-73
2023/12/07 16:20:21;;;;;;;32.90;20.47;;;;;;;;;;10405789;28;20188;-73
2023/12/07 16:25:21;;;;;;;26.00;16.97;;;;;;;;;;10412743;28;20249;-72
2023/12/07 16:30:22;;;;;;;28.27;16.57;;;;;;;;;;10423545;28;20658;-73
2023/12/07 16:35:22;;;;;;;23.87;16.50;;;;;;;;;;10421540;28;20192;-74
2023/12/07 16:40:22;;;;;;;28.23;17.50;;;;;;;;;;10424383;28;20224;-73
2023/12/07 16:45:22;;;;;;;28.10;17.57;;;;;;;;;;10434180;28;20474;-73
2023/12/07 16:50:22;;;;;;;29.60;17.83;;;;;;;;;;10434378;28;20191;-73
2023/12/07 16:55:23;;;;;;;31.10;18.60;;;;;;;;;;10427286;28;20197;-73
2023/12/07 17:00:24;;;;;;;32.80;19.40;;;;;;;;;;10414605;28;20203;-73
2023/12/07 17:05:24;;;;;;;35.97;22.40;;;;;;;;;;10435034;28;20838;-73
2023/12/07 17:10:25;;;;;;;32.10;18.97;;;;;;;;;;10425365;28;20190;-73
2023/12/07 17:15:25;;;;;;;40.43;21.23;;;;;;;;;;10417539;28;20556;-73
2023/12/07 17:20:25;;;;;;;34.03;20.17;;;;;;;;;;10431673;28;20218;-73
2023/12/07 17:25:25;;;;;;;34.07;19.73;;;;;;;;;;10421698;28;20709;-74
2023/12/07 17:30:26;;;;;;;30.00;17.80;;;;;;;;;;10429390;28;20201;-73
2023/12/07 17:35:26;;;;;;;29.83;18.77;;;;;;;;;;10439935;28;20442;-73
2023/12/07 17:40:26;;;;;;;32.43;19.23;;;;;;;;;;10431549;28;20243;-73
2023/12/07 17:45:38;;;;;;;34.60;19.47;;;;;;;;;;10426953;28;20423;-76
2023/12/07 17:50:41;;;;;;;32.93;20.63;;;;;;;;;;10416235;28;20219;-73
2023/12/07 17:55:41;;;;;;;33.50;20.00;;;;;;;;;;10427328;28;20215;-74
2023/12/07 18:00:41;;;;;;;35.47;21.30;;;;;;;;;;10433181;28;20172;-74
2023/12/07 18:05:42;;;;;;;41.97;24.73;;;;;;;;;;10431077;28;20179;-73
2023/12/07 18:10:42;;;;;;;40.90;23.80;;;;;;;;;;10431393;28;20786;-73
2023/12/07 18:15:42;;;;;;;39.83;25.37;;;;;;;;;;10431544;28;20215;-73
2023/12/07 18:20:44;;;;;;;35.90;20.23;;;;;;;;;;10428660;28;20692;-74
2023/12/07 18:25:44;;;;;;;28.77;18.37;;;;;;;;;;10417729;28;20251;-73
2023/12/07 18:30:45;;;;;;;31.80;19.10;;;;;;;;;;10423538;28;20456;-73
2023/12/07 18:35:45;;;;;;;31.40;19.07;;;;;;;;;;10426192;28;20967;-73
2023/12/07 18:40:45;;;;;;;30.93;18.73;;;;;;;;;;10428379;28;20314;-73
2023/12/07 18:45:46;;;;;;;28.05;17.27;;;;;;;;;;10421496;28;20227;-73
2023/12/07 18:50:47;;;;;;;37.87;19.53;;;;;;;;;;10422414;28;20188;-74
2023/12/07 18:55:48;;;;;;;30.87;18.37;;;;;;;;;;10427267;28;20204;-74
2023/12/07 19:00:49;;;;;;;38.07;22.20;;;;;;;;;;10434681;28;20173;-73
2023/12/07 19:05:49;;;;;;;38.93;23.03;;;;;;;;;;10427399;28;20658;-73
2023/12/07 19:10:49;;;;;;;29.40;19.02;;;;;;;;;;10425057;28;20195;-73
2023/12/07 19:15:49;;;;;;;25.33;17.53;;;;;;;;;;10429380;28;20303;-73
2023/12/07 19:20:51;;;;;;;27.10;16.87;;;;;;;;;;10434605;28;20180;-73
2023/12/07 19:25:51;;;;;;;26.17;16.73;;;;;;;;;;10429766;28;20462;-73
2023/12/07 19:30:51;;;;;;;27.40;17.27;;;;;;;;;;10427091;28;20222;-73
2023/12/07 19:35:51;;;;;;;26.10;17.70;;;;;;;;;;10425093;28;20266;-72
2023/12/07 19:40:52;;;;;;;30.27;18.80;;;;;;;;;;10416682;28;20249;-74
2023/12/07 19:45:52;;;;;;;28.73;16.77;;;;;;;;;;10442544;28;20426;-72
2023/12/07 19:50:52;;;;;;;26.90;15.63;;;;;;;;;;10429761;28;20184;-73
2023/12/07 19:55:52;;;;;;;27.20;16.17;;;;;;;;;;10441748;28;20218;-73
2023/12/07 20:01:31;;;;;;;24.33;15.20;;;;;;;;;;10437302;28;20447;-73
2023/12/07 20:06:31;;;;;;;27.97;15.93;;;;;;;;;;10404022;28;20259;-73
2023/12/07 20:11:32;;;;;;;22.97;14.57;;;;;;;;;;10404524;28;20187;-73
2023/12/07 20:22:37;;;;;;;24.73;15.43;;;;;;;;;;10384678;28;20187;-73
2023/12/07 20:27:37;;;;;;;25.80;16.97;;;;;;;;;;10403191;28;20582;-73
2023/12/07 20:32:37;;;;;;;23.70;14.20;;;;;;;;;;10405241;28;20184;-72
2023/12/07 20:37:40;;;;;;;22.30;14.33;;;;;;;;;;10404367;28;20475;-73
2023/12/07 20:42:40;;;;;;;20.93;14.17;;;;;;;;;;10405298;28;20733;-73
2023/12/07 20:47:40;;;;;;;20.90;14.13;;;;;;;;;;10401248;28;20189;-73
2023/12/07 20:52:41;;;;;;;24.50;14.77;;;;;;;;;;10401591;28;20219;-73
2023/12/07 20:57:41;;;;;;;20.25;12.98;;;;;;;;;;10405097;28;20209;-73
2023/12/07 21:02:41;;;;;;;21.10;13.05;;;;;;;;;;10404990;28;20189;-73
2023/12/07 21:07:41;;;;;;;21.73;13.87;;;;;;;;;;10402691;28;20567;-73
2023/12/07 21:12:42;;;;;;;23.87;16.00;;;;;;;;;;10404906;28;20196;-73
2023/12/07 21:17:42;;;;;;;29.10;20.17;;;;;;;;;;10404664;28;20568;-73
2023/12/07 21:22:42;;;;;;;20.73;12.97;;;;;;;;;;10405630;28;20236;-73
2023/12/07 21:27:43;;;;;;;21.13;12.97;;;;;;;;;;10405479;28;20496;-73
2023/12/07 21:32:43;;;;;;;23.07;14.67;;;;;;;;;;10405379;28;20478;-73
2023/12/07 21:37:44;;;;;;;20.07;11.40;;;;;;;;;;10404583;28;20669;-73
2023/12/07 21:42:44;;;;;;;22.98;12.38;;;;;;;;;;10405344;28;20556;-73
2023/12/07 21:47:44;;;;;;;20.57;12.13;;;;;;;;;;10404397;28;20629;-73
2023/12/07 21:52:45;;;;;;;19.90;10.77;;;;;;;;;;10404515;28;20192;-73
2023/12/07 21:57:45;;;;;;;22.60;11.97;;;;;;;;;;10404781;28;20217;-73
2023/12/07 22:02:45;;;;;;;18.23;10.83;;;;;;;;;;10411964;28;20764;-72
2023/12/07 22:07:46;;;;;;;20.53;12.17;;;;;;;;;;10411515;28;20582;-72
2023/12/07 22:12:46;;;;;;;21.13;11.93;;;;;;;;;;10406941;28;20631;-72
2023/12/07 22:17:46;;;;;;;23.37;12.23;;;;;;;;;;10411102;28;20216;-73
2023/12/07 22:22:46;;;;;;;18.47;11.47;;;;;;;;;;10400238;28;21253;-72
2023/12/07 22:27:47;;;;;;;18.50;11.60;;;;;;;;;;10406607;28;20469;-73
2023/12/07 22:32:48;;;;;;;25.57;12.20;;;;;;;;;;10410657;28;20204;-73
2023/12/07 22:37:48;;;;;;;23.03;12.20;;;;;;;;;;10405010;28;20303;-73
2023/12/07 22:42:48;;;;;;;19.47;11.47;;;;;;;;;;10405485;28;20201;-73
2023/12/07 22:47:48;;;;;;;21.48;11.93;;;;;;;;;;10410495;28;20475;-73
2023/12/07 22:52:49;;;;;;;22.08;11.88;;;;;;;;;;10409029;28;20196;-73
2023/12/07 22:57:49;;;;;;;18.13;11.27;;;;;;;;;;10409929;28;20716;-73
2023/12/07 23:02:49;;;;;;;22.60;12.03;;;;;;;;;;10408413;28;20219;-72
2023/12/07 23:07:50;;;;;;;24.10;13.47;;;;;;;;;;10409094;28;20542;-73
2023/12/07 23:12:50;;;;;;;27.73;13.33;;;;;;;;;;10407314;28;20192;-72
2023/12/07 23:17:50;;;;;;;24.90;13.23;;;;;;;;;;10405516;28;20471;-72
2023/12/07 23:22:50;;;;;;;24.63;13.07;;;;;;;;;;10408888;28;20234;-72
2023/12/07 23:27:51;;;;;;;25.85;14.20;;;;;;;;;;10408723;28;20451;-72
2023/12/07 23:32:51;;;;;;;25.03;12.43;;;;;;;;;;10407900;28;20196;-72
2023/12/07 23:37:51;;;;;;;29.10;13.47;;;;;;;;;;10408189;28;20520;-73
2023/12/07 23:42:51;;;;;;;25.43;13.27;;;;;;;;;;10406771;28;20191;-72
2023/12/07 23:47:51;;;;;;;26.03;14.23;;;;;;;;;;10408372;28;20188;-72
2023/12/07 23:52:52;;;;;;;27.17;15.63;;;;;;;;;;10407894;28;20208;-72
2023/12/07 23:57:52;;;;;;;26.83;14.60;;;;;;;;;;10407595;28;20219;-72
